sensor_id;sensor_type;location;lat;lon;timestamp;pressure;altitude;pressure_sealevel;temperature;humidity
61484;BME280;47349;55.640;37.692;2023-03-16T00:01:06;98872.97;;;2.81;100.00
61484;BME280;47349;55.640;37.692;2023-03-16T00:03:33;98874.09;;;2.78;100.00
61484;BME280;47349;55.640;37.692;2023-03-16T00:06:00;98865.59;;;2.75;100.00
61484;BME280;47349;55.640;37.692;2023-03-16T00:08:28;98862.56;;;2.70;100.00
61484;BME280;47349;55.640;37.692;2023-03-16T00:10:55;98866.88;;;2.71;100.00
61484;BME280;47349;55.640;37.692;2023-03-16T00:13:22;98853.22;;;2.66;100.00
61484;BME280;47349;55.640;37.692;2023-03-16T00:18:27;98857.13;;;2.71;100.00
61484;BME280;47349;55.640;37.692;2023-03-16T00:20:55;98843.75;;;2.73;100.00
61484;BME280;47349;55.640;37.692;2023-03-16T00:23:22;98847.06;;;2.75;100.00
61484;BME280;47349;55.640;37.692;2023-03-16T00:25:54;98856.59;;;2.68;100.00
61484;BME280;47349;55.640;37.692;2023-03-16T00:28:21;98862.13;;;2.74;100.00
61484;BME280;47349;55.640;37.692;2023-03-16T00:30:48;98857.97;;;2.72;100.00
61484;BME280;47349;55.640;37.692;2023-03-16T00:33:15;98859.06;;;2.69;100.00
61484;BME280;47349;55.640;37.692;2023-03-16T00:35:46;98858.53;;;2.66;100.00
61484;BME280;47349;55.640;37.692;2023-03-16T00:38:16;98856.88;;;2.65;100.00
61484;BME280;47349;55.640;37.692;2023-03-16T00:40:44;98863.56;;;2.59;100.00
61484;BME280;47349;55.640;37.692;2023-03-16T00:43:11;98860.78;;;2.61;100.00
61484;BME280;47349;55.640;37.692;2023-03-16T00:45:38;98863.56;;;2.59;100.00
61484;BME280;47349;55.640;37.692;2023-03-16T00:48:05;98864.00;;;2.54;100.00
61484;BME280;47349;55.640;37.692;2023-03-16T00:50:32;98861.13;;;2.48;100.00
61484;BME280;47349;55.640;37.692;2023-03-16T00:53:00;98871.13;;;2.54;100.00
61484;BME280;47349;55.640;37.692;2023-03-16T00:55:27;98859.00;;;2.51;100.00
61484;BME280;47349;55.640;37.692;2023-03-16T00:57:54;98863.03;;;2.55;100.00
61484;BME280;47349;55.640;37.692;2023-03-16T01:00:21;98863.19;;;2.54;100.00
61484;BME280;47349;55.640;37.692;2023-03-16T01:02:52;98851.63;;;2.55;100.00
61484;BME280;47349;55.640;37.692;2023-03-16T01:05:19;98862.53;;;2.42;100.00
61484;BME280;47349;55.640;37.692;2023-03-16T01:07:46;98857.78;;;2.46;100.00
61484;BME280;47349;55.640;37.692;2023-03-16T01:10:13;98857.78;;;2.46;100.00
61484;BME280;47349;55.640;37.692;2023-03-16T01:12:40;98818.06;;;2.28;100.00
61484;BME280;47349;55.640;37.692;2023-03-16T01:15:07;98855.25;;;2.54;100.00
61484;BME280;47349;55.640;37.692;2023-03-16T01:17:35;98853.03;;;2.49;100.00
61484;BME280;47349;55.640;37.692;2023-03-16T01:20:02;98850.53;;;2.48;100.00
61484;BME280;47349;55.640;37.692;2023-03-16T01:22:33;98850.66;;;2.46;100.00
61484;BME280;47349;55.640;37.692;2023-03-16T01:25:00;98848.72;;;2.48;100.00
61484;BME280;47349;55.640;37.692;2023-03-16T01:27:28;98849.72;;;2.47;100.00
61484;BME280;47349;55.640;37.692;2023-03-16T01:29:55;98861.25;;;2.46;100.00
61484;BME280;47349;55.640;37.692;2023-03-16T01:32:22;98866.25;;;2.49;100.00
61484;BME280;47349;55.640;37.692;2023-03-16T01:34:49;98861.78;;;2.50;100.00
61484;BME280;47349;55.640;37.692;2023-03-16T01:37:17;98864.56;;;2.58;100.00
61484;BME280;47349;55.640;37.692;2023-03-16T01:40:07;98864.56;;;2.58;100.00
61484;BME280;47349;55.640;37.692;2023-03-16T01:42:43;98863.28;;;2.62;100.00
61484;BME280;47349;55.640;37.692;2023-03-16T01:47:58;98859.81;;;2.62;100.00
61484;BME280;47349;55.640;37.692;2023-03-16T01:50:25;98856.06;;;2.54;100.00
61484;BME280;47349;55.640;37.692;2023-03-16T01:52:53;98858.44;;;2.57;100.00
61484;BME280;47349;55.640;37.692;2023-03-16T01:55:20;98851.34;;;2.58;100.00
61484;BME280;47349;55.640;37.692;2023-03-16T01:57:48;98853.81;;;2.60;100.00
61484;BME280;47349;55.640;37.692;2023-03-16T02:00:16;98854.66;;;2.60;100.00
61484;BME280;47349;55.640;37.692;2023-03-16T02:03:03;98853.81;;;2.60;100.00
61484;BME280;47349;55.640;37.692;2023-03-16T02:05:54;98861.31;;;2.64;100.00
61484;BME280;47349;55.640;37.692;2023-03-16T02:08:24;98857.13;;;2.71;100.00
61484;BME280;47349;55.640;37.692;2023-03-16T02:10:51;98863.53;;;2.69;100.00
61484;BME280;47349;55.640;37.692;2023-03-16T02:13:22;98865.50;;;2.67;100.00
61484;BME280;47349;55.640;37.692;2023-03-16T02:15:50;98860.50;;;2.64;100.00
61484;BME280;47349;55.640;37.692;2023-03-16T02:18:19;98860.22;;;2.67;100.00
61484;BME280;47349;55.640;37.692;2023-03-16T02:23:16;98854.94;;;2.67;100.00
61484;BME280;47349;55.640;37.692;2023-03-16T02:31:03;98860.22;;;2.67;100.00
61484;BME280;47349;55.640;37.692;2023-03-16T02:33:31;98855.50;;;2.61;100.00
61484;BME280;47349;55.640;37.692;2023-03-16T02:35:59;98852.72;;;2.62;100.00
61484;BME280;47349;55.640;37.692;2023-03-16T02:38:27;98850.47;;;2.67;100.00
61484;BME280;47349;55.640;37.692;2023-03-16T02:40:58;98852.38;;;2.75;100.00
61484;BME280;47349;55.640;37.692;2023-03-16T02:43:28;98843.47;;;2.76;100.00
61484;BME280;47349;55.640;37.692;2023-03-16T02:46:09;98829.66;;;2.82;100.00
61484;BME280;47349;55.640;37.692;2023-03-16T02:48:39;98831.69;;;2.88;100.00
61484;BME280;47349;55.640;37.692;2023-03-16T02:51:09;98830.31;;;2.84;99.65
61484;BME280;47349;55.640;37.692;2023-03-16T02:53:37;98828.38;;;2.86;100.00
61484;BME280;47349;55.640;37.692;2023-03-16T02:56:04;98824.19;;;2.83;99.92
61484;BME280;47349;55.640;37.692;2023-03-16T02:58:34;98840.91;;;2.84;99.94
61484;BME280;47349;55.640;37.692;2023-03-16T03:01:04;98846.13;;;2.76;100.00
61484;BME280;47349;55.640;37.692;2023-03-16T03:03:33;98847.91;;;2.75;99.75
61484;BME280;47349;55.640;37.692;2023-03-16T03:06:00;98837.63;;;2.72;99.92
61484;BME280;47349;55.640;37.692;2023-03-16T03:08:33;98839.56;;;2.70;100.00
61484;BME280;47349;55.640;37.692;2023-03-16T03:11:00;98835.25;;;2.69;100.00
61484;BME280;47349;55.640;37.692;2023-03-16T03:13:27;98835.81;;;2.73;100.00
61484;BME280;47349;55.640;37.692;2023-03-16T03:15:54;98847.50;;;2.70;100.00
61484;BME280;47349;55.640;37.692;2023-03-16T03:18:24;98836.09;;;2.70;100.00
61484;BME280;47349;55.640;37.692;2023-03-16T03:20:51;98838.75;;;2.70;100.00
61484;BME280;47349;55.640;37.692;2023-03-16T03:23:18;98839.56;;;2.70;100.00
61484;BME280;47349;55.640;37.692;2023-03-16T03:25:45;98830.13;;;2.68;99.61
61484;BME280;47349;55.640;37.692;2023-03-16T03:28:14;98823.25;;;2.75;99.62
61484;BME280;47349;55.640;37.692;2023-03-16T03:30:42;98818.94;;;2.74;99.09
61484;BME280;47349;55.640;37.692;2023-03-16T03:33:09;98815.03;;;2.78;98.57
61484;BME280;47349;55.640;37.692;2023-03-16T03:35:36;98817.41;;;2.81;99.14
61484;BME280;47349;55.640;37.692;2023-03-16T03:38:03;98827.28;;;2.79;99.21
61484;BME280;47349;55.640;37.692;2023-03-16T03:40:30;98822.31;;;2.76;99.81
61484;BME280;47349;55.640;37.692;2023-03-16T03:43:01;98815.47;;;2.73;100.00
61484;BME280;47349;55.640;37.692;2023-03-16T03:45:30;98819.28;;;2.71;99.92
61484;BME280;47349;55.640;37.692;2023-03-16T03:47:57;98816.63;;;2.71;99.94
61484;BME280;47349;55.640;37.692;2023-03-16T03:50:24;98818.72;;;2.67;100.00
61484;BME280;47349;55.640;37.692;2023-03-16T03:53:00;98824.28;;;2.64;100.00
61484;BME280;47349;55.640;37.692;2023-03-16T03:55:30;98837.38;;;2.66;100.00
61484;BME280;47349;55.640;37.692;2023-03-16T03:57:57;98828.75;;;2.64;100.00
61484;BME280;47349;55.640;37.692;2023-03-16T04:00:24;98829.75;;;2.63;100.00
61484;BME280;47349;55.640;37.692;2023-03-16T04:02:52;98838.16;;;2.48;100.00
61484;BME280;47349;55.640;37.692;2023-03-16T04:05:27;98831.31;;;2.46;100.00
61484;BME280;47349;55.640;37.692;2023-03-16T04:07:54;98837.84;;;2.51;100.00
61484;BME280;47349;55.640;37.692;2023-03-16T04:10:23;98829.06;;;2.51;100.00
61484;BME280;47349;55.640;37.692;2023-03-16T04:12:51;98831.59;;;2.52;100.00
61484;BME280;47349;55.640;37.692;2023-03-16T04:15:18;98835.19;;;2.51;100.00
61484;BME280;47349;55.640;37.692;2023-03-16T04:17:56;98830.38;;;2.47;100.00
61484;BME280;47349;55.640;37.692;2023-03-16T04:20:23;98828.56;;;2.47;100.00
61484;BME280;47349;55.640;37.692;2023-03-16T04:22:51;98824.94;;;2.48;100.00
61484;BME280;47349;55.640;37.692;2023-03-16T04:25:24;98827.44;;;2.40;100.00
61484;BME280;47349;55.640;37.692;2023-03-16T04:27:57;98827.19;;;2.43;100.00
61484;BME280;47349;55.640;37.692;2023-03-16T04:30:27;98829.41;;;2.38;100.00
61484;BME280;47349;55.640;37.692;2023-03-16T04:33:08;98818.84;;;2.38;100.00
61484;BME280;47349;55.640;37.692;2023-03-16T04:35:35;98826.03;;;2.46;100.00
61484;BME280;47349;55.640;37.692;2023-03-16T04:38:02;98807.97;;;2.41;100.00
61484;BME280;47349;55.640;37.692;2023-03-16T04:40:38;98828.84;;;2.44;100.00
61484;BME280;47349;55.640;37.692;2023-03-16T04:43:11;98842.34;;;2.41;100.00
61484;BME280;47349;55.640;37.692;2023-03-16T04:45:40;98844.97;;;2.41;100.00
61484;BME280;47349;55.640;37.692;2023-03-16T04:48:08;98852.25;;;2.39;100.00
61484;BME280;47349;55.640;37.692;2023-03-16T04:50:37;98862.53;;;2.42;100.00
61484;BME280;47349;55.640;37.692;2023-03-16T04:53:04;98849.31;;;2.42;100.00
61484;BME280;47349;55.640;37.692;2023-03-16T04:55:31;98850.00;;;2.44;100.00
61484;BME280;47349;55.640;37.692;2023-03-16T04:57:59;98854.22;;;2.37;100.00
61484;BME280;47349;55.640;37.692;2023-03-16T05:00:31;98862.81;;;2.39;100.00
61484;BME280;47349;55.640;37.692;2023-03-16T05:03:10;98863.78;;;2.38;100.00
61484;BME280;47349;55.640;37.692;2023-03-16T05:05:37;98852.38;;;2.38;100.00
61484;BME280;47349;55.640;37.692;2023-03-16T05:08:05;98856.13;;;2.35;100.00
61484;BME280;47349;55.640;37.692;2023-03-16T05:10:34;98862.28;;;2.26;100.00
61484;BME280;47349;55.640;37.692;2023-03-16T05:13:01;98868.97;;;2.20;100.00
61484;BME280;47349;55.640;37.692;2023-03-16T05:15:28;98873.16;;;2.23;100.00
61484;BME280;47349;55.640;37.692;2023-03-16T05:18:13;98880.81;;;2.16;100.00
61484;BME280;47349;55.640;37.692;2023-03-16T05:20:40;98881.53;;;2.18;100.00
61484;BME280;47349;55.640;37.692;2023-03-16T05:23:08;98885.69;;;2.21;100.00
61484;BME280;47349;55.640;37.692;2023-03-16T05:25:42;98880.78;;;2.26;100.00
61484;BME280;47349;55.640;37.692;2023-03-16T05:28:13;98882.34;;;2.28;100.00
61484;BME280;47349;55.640;37.692;2023-03-16T05:30:46;98883.16;;;2.29;100.00
61484;BME280;47349;55.640;37.692;2023-03-16T05:33:19;98866.16;;;2.31;100.00
61484;BME280;47349;55.640;37.692;2023-03-16T05:35:51;98856.81;;;2.47;100.00
61484;BME280;47349;55.640;37.692;2023-03-16T05:38:18;98852.31;;;2.57;100.00
61484;BME280;47349;55.640;37.692;2023-03-16T05:40:47;98848.53;;;2.60;100.00
61484;BME280;47349;55.640;37.692;2023-03-16T05:43:35;98867.22;;;2.58;100.00
61484;BME280;47349;55.640;37.692;2023-03-16T05:46:02;98860.78;;;2.61;100.00
61484;BME280;47349;55.640;37.692;2023-03-16T05:48:30;98862.06;;;2.56;100.00
61484;BME280;47349;55.640;37.692;2023-03-16T05:50:58;98861.38;;;2.54;100.00
61484;BME280;47349;55.640;37.692;2023-03-16T05:53:27;98865.53;;;2.57;100.00
61484;BME280;47349;55.640;37.692;2023-03-16T05:56:00;98861.09;;;2.57;100.00
61484;BME280;47349;55.640;37.692;2023-03-16T05:58:30;98874.16;;;2.59;100.00
61484;BME280;47349;55.640;37.692;2023-03-16T06:01:04;98881.94;;;2.61;100.00
61484;BME280;47349;55.640;37.692;2023-03-16T06:03:32;98876.97;;;2.57;100.00
61484;BME280;47349;55.640;37.692;2023-03-16T06:05:59;98885.56;;;2.60;100.00
61484;BME280;47349;55.640;37.692;2023-03-16T06:08:36;98887.22;;;2.61;100.00
61484;BME280;47349;55.640;37.692;2023-03-16T06:11:09;98878.34;;;2.62;100.00
61484;BME280;47349;55.640;37.692;2023-03-16T06:13:38;98878.03;;;2.65;100.00
61484;BME280;47349;55.640;37.692;2023-03-16T06:16:05;98876.38;;;2.64;100.00
61484;BME280;47349;55.640;37.692;2023-03-16T06:18:34;98887.53;;;2.57;100.00
61484;BME280;47349;55.640;37.692;2023-03-16T06:21:01;98890.31;;;2.56;100.00
61484;BME280;47349;55.640;37.692;2023-03-16T06:23:32;98894.50;;;2.58;100.00
61484;BME280;47349;55.640;37.692;2023-03-16T06:26:00;98898.78;;;2.60;100.00
61484;BME280;47349;55.640;37.692;2023-03-16T06:28:29;98891.16;;;2.56;100.00
61484;BME280;47349;55.640;37.692;2023-03-16T06:30:56;98893.50;;;2.60;100.00
61484;BME280;47349;55.640;37.692;2023-03-16T06:33:28;98902.84;;;2.54;100.00
61484;BME280;47349;55.640;37.692;2023-03-16T06:35:55;98910.66;;;2.46;100.00
61484;BME280;47349;55.640;37.692;2023-03-16T06:38:30;98922.81;;;2.39;100.00
61484;BME280;47349;55.640;37.692;2023-03-16T06:41:02;98912.78;;;2.42;100.00
61484;BME280;47349;55.640;37.692;2023-03-16T06:43:32;98910.97;;;2.43;100.00
61484;BME280;47349;55.640;37.692;2023-03-16T06:45:59;98914.88;;;2.39;100.00
61484;BME280;47349;55.640;37.692;2023-03-16T06:48:28;98911.94;;;2.32;100.00
61484;BME280;47349;55.640;37.692;2023-03-16T06:50:56;98898.88;;;2.30;100.00
61484;BME280;47349;55.640;37.692;2023-03-16T06:53:26;98896.53;;;2.27;100.00
61484;BME280;47349;55.640;37.692;2023-03-16T06:55:54;98895.13;;;2.33;100.00
61484;BME280;47349;55.640;37.692;2023-03-16T06:58:21;98902.06;;;2.44;100.00
61484;BME280;47349;55.640;37.692;2023-03-16T07:00:49;98899.25;;;2.45;100.00
61484;BME280;47349;55.640;37.692;2023-03-16T07:03:16;98897.31;;;2.47;100.00
61484;BME280;47349;55.640;37.692;2023-03-16T07:05:48;98895.63;;;2.46;100.00
61484;BME280;47349;55.640;37.692;2023-03-16T07:08:16;98880.31;;;2.50;100.00
61484;BME280;47349;55.640;37.692;2023-03-16T07:10:43;98884.19;;;2.55;100.00
61484;BME280;47349;55.640;37.692;2023-03-16T07:13:10;98887.78;;;2.64;100.00
61484;BME280;47349;55.640;37.692;2023-03-16T07:15:37;98890.00;;;2.69;100.00
61484;BME280;47349;55.640;37.692;2023-03-16T07:18:05;98888.72;;;2.73;100.00
61484;BME280;47349;55.640;37.692;2023-03-16T07:20:32;98895.66;;;2.83;100.00
61484;BME280;47349;55.640;37.692;2023-03-16T07:23:04;98902.03;;;2.91;100.00
61484;BME280;47349;55.640;37.692;2023-03-16T07:25:33;98889.09;;;2.88;100.00
61484;BME280;47349;55.640;37.692;2023-03-16T07:28:00;98903.84;;;2.90;100.00
61484;BME280;47349;55.640;37.692;2023-03-16T07:30:32;98898.25;;;2.93;100.00
61484;BME280;47349;55.640;37.692;2023-03-16T07:33:00;98896.81;;;2.99;100.00
61484;BME280;47349;55.640;37.692;2023-03-16T07:35:29;98904.03;;;3.06;100.00
61484;BME280;47349;55.640;37.692;2023-03-16T07:37:56;98899.84;;;3.04;100.00
61484;BME280;47349;55.640;37.692;2023-03-16T07:40:24;98896.25;;;3.05;100.00
61484;BME280;47349;55.640;37.692;2023-03-16T07:42:57;98898.75;;;3.06;100.00
61484;BME280;47349;55.640;37.692;2023-03-16T07:45:27;98892.84;;;3.13;100.00
61484;BME280;47349;55.640;37.692;2023-03-16T07:47:55;98880.59;;;3.12;100.00
61484;BME280;47349;55.640;37.692;2023-03-16T07:50:33;98883.84;;;3.05;100.00
61484;BME280;47349;55.640;37.692;2023-03-16T07:52:59;98879.50;;;3.04;100.00
61484;BME280;47349;55.640;37.692;2023-03-16T07:55:27;98890.25;;;3.03;100.00
61484;BME280;47349;55.640;37.692;2023-03-16T07:57:54;98878.41;;;3.07;100.00
61484;BME280;47349;55.640;37.692;2023-03-16T08:00:28;98881.97;;;3.16;100.00
61484;BME280;47349;55.640;37.692;2023-03-16T08:02:56;98873.88;;;3.17;100.00
61484;BME280;47349;55.640;37.692;2023-03-16T08:05:24;98882.09;;;3.14;100.00
61484;BME280;47349;55.640;37.692;2023-03-16T08:07:57;98880.00;;;3.18;100.00
61484;BME280;47349;55.640;37.692;2023-03-16T08:10:26;98877.75;;;3.23;100.00
61484;BME280;47349;55.640;37.692;2023-03-16T08:13:01;98883.03;;;3.23;100.00
61484;BME280;47349;55.640;37.692;2023-03-16T08:15:31;98888.34;;;3.23;100.00
61484;BME280;47349;55.640;37.692;2023-03-16T08:18:14;98883.91;;;3.14;100.00
61484;BME280;47349;55.640;37.692;2023-03-16T08:20:42;98880.88;;;3.08;100.00
61484;BME280;47349;55.640;37.692;2023-03-16T08:23:10;98881.44;;;3.12;100.00
61484;BME280;47349;55.640;37.692;2023-03-16T08:25:40;98890.91;;;3.15;100.00
61484;BME280;47349;55.640;37.692;2023-03-16T08:28:15;98893.44;;;3.06;100.00
61484;BME280;47349;55.640;37.692;2023-03-16T08:30:43;98890.09;;;3.04;100.00
61484;BME280;47349;55.640;37.692;2023-03-16T08:33:20;98897.66;;;2.99;100.00
61484;BME280;47349;55.640;37.692;2023-03-16T08:35:50;98890.69;;;2.98;100.00
61484;BME280;47349;55.640;37.692;2023-03-16T08:38:17;98896.16;;;2.97;100.00
61484;BME280;47349;55.640;37.692;2023-03-16T08:40:46;98902.00;;;3.00;100.00
61484;BME280;47349;55.640;37.692;2023-03-16T08:43:17;98905.59;;;2.99;100.00
61484;BME280;47349;55.640;37.692;2023-03-16T08:45:47;98903.06;;;3.07;100.00
61484;BME280;47349;55.640;37.692;2023-03-16T08:48:16;98903.06;;;3.07;100.00
61484;BME280;47349;55.640;37.692;2023-03-16T08:50:47;98899.78;;;2.96;100.00
61484;BME280;47349;55.640;37.692;2023-03-16T08:53:14;98904.69;;;2.91;100.00
61484;BME280;47349;55.640;37.692;2023-03-16T08:55:41;98893.91;;;3.02;100.00
61484;BME280;47349;55.640;37.692;2023-03-16T08:58:08;98892.03;;;3.12;100.00
61484;BME280;47349;55.640;37.692;2023-03-16T09:00:35;98895.88;;;3.18;100.00
61484;BME280;47349;55.640;37.692;2023-03-16T09:03:03;98911.50;;;3.21;100.00
61484;BME280;47349;55.640;37.692;2023-03-16T09:05:30;98903.44;;;3.13;100.00
61484;BME280;47349;55.640;37.692;2023-03-16T09:07:58;98906.09;;;3.13;100.00
61484;BME280;47349;55.640;37.692;2023-03-16T09:10:25;98907.09;;;3.12;100.00
61484;BME280;47349;55.640;37.692;2023-03-16T09:12:53;98894.50;;;3.14;100.00
61484;BME280;47349;55.640;37.692;2023-03-16T09:15:20;98901.44;;;3.24;100.00
61484;BME280;47349;55.640;37.692;2023-03-16T09:17:48;98903.66;;;3.29;100.00
61484;BME280;47349;55.640;37.692;2023-03-16T09:20:16;98905.81;;;3.33;100.00
61484;BME280;47349;55.640;37.692;2023-03-16T09:22:51;98899.69;;;3.33;100.00
61484;BME280;47349;55.640;37.692;2023-03-16T09:25:19;98906.38;;;3.37;100.00
61484;BME280;47349;55.640;37.692;2023-03-16T09:27:46;98904.25;;;3.41;100.00
61484;BME280;47349;55.640;37.692;2023-03-16T09:30:13;98902.00;;;3.46;100.00
61484;BME280;47349;55.640;37.692;2023-03-16T09:32:42;98897.38;;;3.48;100.00
61484;BME280;47349;55.640;37.692;2023-03-16T09:35:09;98899.56;;;3.52;100.00
61484;BME280;47349;55.640;37.692;2023-03-16T09:37:37;98902.91;;;3.54;100.00
61484;BME280;47349;55.640;37.692;2023-03-16T09:40:20;98902.91;;;3.54;100.00
61484;BME280;47349;55.640;37.692;2023-03-16T09:42:51;98895.97;;;3.53;100.00
61484;BME280;47349;55.640;37.692;2023-03-16T09:45:31;98898.22;;;3.48;100.00
61484;BME280;47349;55.640;37.692;2023-03-16T09:48:01;98889.97;;;3.51;100.00
61484;BME280;47349;55.640;37.692;2023-03-16T09:50:33;98897.69;;;3.45;100.00
61484;BME280;47349;55.640;37.692;2023-03-16T09:55:41;98890.66;;;3.53;100.00
61484;BME280;47349;55.640;37.692;2023-03-16T09:58:18;98898.28;;;3.56;100.00
61484;BME280;47349;55.640;37.692;2023-03-16T10:01:00;98888.06;;;3.61;100.00
61484;BME280;47349;55.640;37.692;2023-03-16T10:06:03;98883.03;;;3.68;100.00
61484;BME280;47349;55.640;37.692;2023-03-16T10:19:01;98893.75;;;3.84;100.00
61484;BME280;47349;55.640;37.692;2023-03-16T10:21:29;98897.94;;;3.87;100.00
61484;BME280;47349;55.640;37.692;2023-03-16T10:23:57;98897.06;;;3.86;100.00
61484;BME280;47349;55.640;37.692;2023-03-16T10:26:30;98899.34;;;3.81;100.00
61484;BME280;47349;55.640;37.692;2023-03-16T10:28:59;98904.28;;;3.76;100.00
61484;BME280;47349;55.640;37.692;2023-03-16T10:31:26;98903.06;;;3.71;100.00
61484;BME280;47349;55.640;37.692;2023-03-16T10:33:56;98906.41;;;3.73;100.00
61484;BME280;47349;55.640;37.692;2023-03-16T10:36:26;98905.81;;;3.79;100.00
61484;BME280;47349;55.640;37.692;2023-03-16T10:38:59;98906.19;;;3.84;100.00
61484;BME280;47349;55.640;37.692;2023-03-16T10:41:28;98905.19;;;3.85;100.00
61484;BME280;47349;55.640;37.692;2023-03-16T10:44:00;98905.56;;;3.90;100.00
61484;BME280;47349;55.640;37.692;2023-03-16T10:49:03;98900.63;;;3.95;100.00
61484;BME280;47349;55.640;37.692;2023-03-16T10:51:31;98901.38;;;4.05;100.00
61484;BME280;47349;55.640;37.692;2023-03-16T10:54:12;98910.25;;;4.14;100.00
61484;BME280;47349;55.640;37.692;2023-03-16T10:56:40;98914.03;;;4.11;100.00
61484;BME280;47349;55.640;37.692;2023-03-16T10:59:26;98906.38;;;4.08;100.00
61484;BME280;47349;55.640;37.692;2023-03-16T11:01:53;98903.56;;;4.10;100.00
61484;BME280;47349;55.640;37.692;2023-03-16T11:04:20;98906.91;;;4.12;100.00
61484;BME280;47349;55.640;37.692;2023-03-16T11:06:56;98917.19;;;4.15;100.00
61484;BME280;47349;55.640;37.692;2023-03-16T11:09:25;98914.72;;;4.13;100.00
61484;BME280;47349;55.640;37.692;2023-03-16T11:11:53;98908.59;;;4.13;100.00
61484;BME280;47349;55.640;37.692;2023-03-16T11:14:21;98911.53;;;4.10;100.00
61484;BME280;47349;55.640;37.692;2023-03-16T11:16:59;98909.94;;;4.17;100.00
61484;BME280;47349;55.640;37.692;2023-03-16T11:19:30;98914.25;;;4.18;100.00
61484;BME280;47349;55.640;37.692;2023-03-16T11:27:22;98911.59;;;4.36;100.00
61484;BME280;47349;55.640;37.692;2023-03-16T11:32:23;98923.03;;;4.36;100.00
61484;BME280;47349;55.640;37.692;2023-03-16T11:34:52;98924.00;;;4.35;100.00
61484;BME280;47349;55.640;37.692;2023-03-16T11:37:41;98920.38;;;4.36;100.00
61484;BME280;47349;55.640;37.692;2023-03-16T11:43:04;98924.06;;;4.44;100.00
61484;BME280;47349;55.640;37.692;2023-03-16T11:45:40;98927.50;;;4.36;100.00
61484;BME280;47349;55.640;37.692;2023-03-16T12:01:27;98935.38;;;4.28;100.00
61484;BME280;47349;55.640;37.692;2023-03-16T12:06:34;98947.97;;;4.26;100.00
61484;BME280;47349;55.640;37.692;2023-03-16T12:11:58;98950.94;;;4.23;100.00
61484;BME280;47349;55.640;37.692;2023-03-16T12:14:28;98949.28;;;4.22;100.00
61484;BME280;47349;55.640;37.692;2023-03-16T12:17:08;98945.63;;;4.23;100.00
61484;BME280;47349;55.640;37.692;2023-03-16T12:19:46;98948.91;;;4.17;100.00
61484;BME280;47349;55.640;37.692;2023-03-16T12:22:19;98944.56;;;4.16;100.00
61484;BME280;47349;55.640;37.692;2023-03-16T12:24:49;98940.94;;;4.17;100.00
61484;BME280;47349;55.640;37.692;2023-03-16T12:27:18;98950.72;;;4.16;100.00
61484;BME280;47349;55.640;37.692;2023-03-16T12:35:24;98951.75;;;4.05;100.00
61484;BME280;47349;55.640;37.692;2023-03-16T12:38:00;98956.41;;;4.03;100.00
61484;BME280;47349;55.640;37.692;2023-03-16T12:50:45;98968.91;;;3.93;100.00
61484;BME280;47349;55.640;37.692;2023-03-16T12:53:24;98962.91;;;3.91;100.00
61484;BME280;47349;55.640;37.692;2023-03-16T12:55:52;98964.34;;;3.85;100.00
61484;BME280;47349;55.640;37.692;2023-03-16T12:58:20;98962.97;;;3.81;100.00
61484;BME280;47349;55.640;37.692;2023-03-16T13:00:56;98965.78;;;3.80;100.00
61484;BME280;47349;55.640;37.692;2023-03-16T13:03:24;98964.19;;;3.69;100.00
61484;BME280;47349;55.640;37.692;2023-03-16T13:05:52;98962.75;;;3.75;100.00
61484;BME280;47349;55.640;37.692;2023-03-16T13:08:21;98962.97;;;3.81;100.00
61484;BME280;47349;55.640;37.692;2023-03-16T13:11:05;98962.97;;;3.81;100.00
61484;BME280;47349;55.640;37.692;2023-03-16T13:13:33;98959.66;;;3.79;100.00
61484;BME280;47349;55.640;37.692;2023-03-16T13:16:08;98967.22;;;3.74;100.00
61484;BME280;47349;55.640;37.692;2023-03-16T13:18:39;98965.00;;;3.70;100.00
61484;BME280;47349;55.640;37.692;2023-03-16T13:21:20;98961.69;;;3.68;100.00
61484;BME280;47349;55.640;37.692;2023-03-16T13:23:55;98963.94;;;3.63;100.00
61484;BME280;47349;55.640;37.692;2023-03-16T13:28:59;98963.13;;;3.34;100.00
61484;BME280;47349;55.640;37.692;2023-03-16T13:31:35;98958.84;;;3.24;100.00
61484;BME280;47349;55.640;37.692;2023-03-16T13:34:05;98960.59;;;3.15;100.00
61484;BME280;47349;55.640;37.692;2023-03-16T13:36:33;98965.16;;;3.13;100.00
61484;BME280;47349;55.640;37.692;2023-03-16T13:41:40;98955.56;;;3.12;100.00
61484;BME280;47349;55.640;37.692;2023-03-16T13:44:17;98958.44;;;3.19;100.00
61484;BME280;47349;55.640;37.692;2023-03-16T13:46:46;98961.41;;;3.16;100.00
61484;BME280;47349;55.640;37.692;2023-03-16T13:49:13;98957.53;;;3.10;100.00
61484;BME280;47349;55.640;37.692;2023-03-16T13:51:40;98960.03;;;3.12;100.00
61484;BME280;47349;55.640;37.692;2023-03-16T13:54:30;98958.75;;;3.16;100.00
61484;BME280;47349;55.640;37.692;2023-03-16T13:56:57;98963.31;;;3.23;100.00
61484;BME280;47349;55.640;37.692;2023-03-16T13:59:24;98961.06;;;3.28;100.00
61484;BME280;47349;55.640;37.692;2023-03-16T14:01:55;98963.41;;;3.31;100.00
61484;BME280;47349;55.640;37.692;2023-03-16T14:04:28;98958.84;;;3.24;100.00
61484;BME280;47349;55.640;37.692;2023-03-16T14:06:59;98954.06;;;3.09;100.00
61484;BME280;47349;55.640;37.692;2023-03-16T14:09:28;98944.31;;;3.10;100.00
61484;BME280;47349;55.640;37.692;2023-03-16T14:11:57;98952.63;;;3.15;100.00
61484;BME280;47349;55.640;37.692;2023-03-16T14:14:35;98948.84;;;3.18;100.00
61484;BME280;47349;55.640;37.692;2023-03-16T14:17:07;98950.50;;;3.19;100.00
61484;BME280;47349;55.640;37.692;2023-03-16T14:19:41;98959.88;;;3.13;100.00
61484;BME280;47349;55.640;37.692;2023-03-16T14:22:11;98952.38;;;3.08;100.00
61484;BME280;47349;55.640;37.692;2023-03-16T14:24:38;98951.97;;;3.03;100.00
61484;BME280;47349;55.640;37.692;2023-03-16T14:29:42;98970.56;;;2.84;100.00